Tropical Cyclones
[Index]
Main Index Home Page Stock Weather Photos Extreme Storms Discussion Storm News and Storm Chasing Reports Tropical Cyclones / Hurricanes / Typhoons Weather Data and Links Wild Fires / Bushfires Weather Observation Techniques Weather Picture Catalogue Tornado Pictures and Reports Stock Video Footage and DVDs for sale
Season 1995-1996 Tropical Cyclone HANSELLA Track Map
Season 1995-1996 Summaries: [BoM-AU] [JTWC-AU] [JTWC-SIO] [JTWC-SPAC] [JTWC-SH]
<<- Previous TC | JTWC 1995-1996 Season | Next TC ->>

click for intensity scale information  Lat/long Grid: Show Hide

 Date Labels: Show Hide

Joint Typhoon Warning Centre Cyclone Data

Name: HANSELLA

02 Apr 1996 00:00 UTC to 11 Apr 1996 06:00 UTC

    date/time    lat    long     hPa   cat  kts
1996-04-02 00   16.9    74.5                  20          
1996-04-02 06   16.7    73.7                  25          
1996-04-02 12   16.5    73.0                  25          
1996-04-02 18   16.3    72.2                  30          
1996-04-03 00   16.1    71.3                  35          
1996-04-03 06   15.9    70.4                  35          
1996-04-03 12   15.7    69.6                  35          
1996-04-03 18   15.6    68.7                  35          
1996-04-04 00   15.5    67.7            1     40          
1996-04-04 06   15.5    66.6            1     45          
1996-04-04 12   15.9    65.7            1     50          
1996-04-04 18   16.5    64.9            2     55          
1996-04-05 00   17.1    64.1            2     60          
1996-04-05 06   17.6    63.6            2     65          
1996-04-05 12   18.2    63.4            2     70          
1996-04-05 18   18.8    63.3            3     80          
1996-04-06 00   19.4    63.4            3     90          
1996-04-06 06   19.9    63.7            3     95          
1996-04-06 12   20.3    64.1            3     95          
1996-04-06 18   20.5    64.5            3     95          
1996-04-07 00   20.7    64.7            3     95          
1996-04-07 06   20.7    64.9            3     95          
1996-04-07 12   20.6    65.2            3     95          
1996-04-07 18   20.4    65.2            3     95          
1996-04-08 00   20.1    64.9            3     90          
1996-04-08 06   20.0    64.4            3     80          
1996-04-08 12   20.1    63.8            2     70          
1996-04-08 18   20.2    62.9            2     60          
1996-04-09 00   20.3    61.9            2     55          
1996-04-09 06   20.5    60.7            1     50          
1996-04-09 12   20.6    59.4            1     40          
1996-04-09 18   20.8    58.0                  35          
1996-04-10 00   20.9    56.8                  30          
1996-04-10 06   20.8    56.0                  25          
1996-04-10 12   20.8    55.3                  25          
1996-04-10 18   20.9    54.8                  25          
1996-04-11 00   21.2    54.3                  25          
1996-04-11 06   21.8    53.8                  25          
Winds are 1-min average.

Tropical cyclone tracks developed by Michael Bath using data from the Joint Typhoon Warning Centre Best Tracks and Google Maps.


[Australian Severe Weather index] [Copyright Notice] [Email Contacts] [Search This Site] [Privacy Policy]
Document: tropical_cyclone_hansella.htm Updated: 18 September 2016